createdAt,value
2022-09-05T00:00:12.366Z,18.79
2022-09-05T00:02:39.350Z,18.75
2022-09-05T00:05:15.703Z,18.77
2022-09-05T00:07:59.375Z,18.69
2022-09-05T00:10:26.791Z,18.67
2022-09-05T00:13:07.165Z,18.66
2022-09-05T00:15:34.457Z,18.60
2022-09-05T00:20:06.433Z,18.60
2022-09-05T00:24:26.449Z,18.56
2022-09-05T00:24:29.345Z,17.16
2022-09-05T00:26:23.205Z,18.42
2022-09-05T00:28:49.554Z,18.36
2022-09-05T00:31:55.598Z,18.34
2022-09-05T00:34:02.493Z,18.33
2022-09-05T00:36:28.901Z,18.25
2022-09-05T00:38:55.358Z,18.21
2022-09-05T00:41:24.224Z,18.18
2022-09-05T00:43:50.733Z,18.14
2022-09-05T00:46:17.693Z,18.09
2022-09-05T00:48:44.533Z,18.03
2022-09-05T00:51:10.949Z,17.98
2022-09-05T00:53:37.866Z,17.94
2022-09-05T00:56:04.486Z,17.94
2022-09-05T00:58:34.075Z,17.90
2022-09-05T01:01:03.744Z,17.84
2022-09-05T01:03:48.887Z,17.79
2022-09-05T01:06:15.295Z,17.74
2022-09-05T01:08:42.193Z,17.72
2022-09-05T01:11:08.558Z,17.68
2022-09-05T01:13:35.852Z,17.70
2022-09-05T01:16:02.384Z,17.65
2022-09-05T01:18:28.920Z,17.65
2022-09-05T01:20:55.259Z,17.67
2022-09-05T01:23:21.713Z,17.65
2022-09-05T01:25:55.003Z,17.66
2022-09-05T01:29:17.029Z,17.64
2022-09-05T01:31:09.585Z,17.64
2022-09-05T01:33:36.074Z,17.62
2022-09-05T01:36:04.144Z,17.60
2022-09-05T01:38:31.011Z,17.61
2022-09-05T01:41:17.833Z,17.54
2022-09-05T01:43:47.192Z,17.51
2022-09-05T01:46:15.342Z,17.45
2022-09-05T01:48:47.428Z,17.43
2022-09-05T01:51:28.743Z,17.41
2022-09-05T01:53:56.037Z,17.36
2022-09-05T01:56:23.285Z,17.34
2022-09-05T01:58:49.715Z,17.29
2022-09-05T02:01:25.293Z,17.31
2022-09-05T02:03:59.573Z,17.31
2022-09-05T02:06:33.528Z,17.30
2022-09-05T02:08:59.916Z,17.26
2022-09-05T02:11:35.703Z,17.28
2022-09-05T02:14:02.753Z,17.30
2022-09-05T02:16:29.237Z,17.27
2022-09-05T02:18:55.699Z,17.24
2022-09-05T02:21:22.543Z,17.17
2022-09-05T02:23:49.445Z,17.17
2022-09-05T02:26:16.110Z,17.15
2022-09-05T02:28:42.562Z,17.11
2022-09-05T02:31:19.554Z,17.09
2022-09-05T02:33:47.190Z,17.03
2022-09-05T02:36:13.586Z,17.02
2022-09-05T02:42:12.854Z,17.01
2022-09-05T02:45:04.076Z,16.99
2022-09-05T02:45:10.844Z,17.00
2022-09-05T02:47:03.480Z,16.97
2022-09-05T02:50:33.441Z,16.95
2022-09-05T02:57:24.514Z,16.92
2022-09-05T02:57:40.447Z,16.89
2022-09-05T02:58:07.817Z,16.88
2022-09-05T03:00:35.104Z,16.85
2022-09-05T03:03:02.664Z,16.82
2022-09-05T03:05:31.403Z,16.78
2022-09-05T03:07:57.815Z,16.74
2022-09-05T03:10:28.345Z,16.72
2022-09-05T03:13:14.882Z,16.71
2022-09-05T03:15:41.308Z,16.71
2022-09-05T03:18:31.276Z,16.74
2022-09-05T03:20:55.577Z,16.77
2022-09-05T03:23:36.206Z,16.83
2022-09-05T03:26:02.685Z,16.86
2022-09-05T03:28:29.151Z,16.88
2022-09-05T03:30:55.593Z,16.70
2022-09-05T03:33:22.293Z,16.88
2022-09-05T03:35:48.697Z,16.88
2022-09-05T03:38:15.080Z,16.85
2022-09-05T03:40:43.532Z,16.80
2022-09-05T03:43:09.931Z,16.80
2022-09-05T03:45:37.546Z,16.82
2022-09-05T03:48:24.669Z,16.85
2022-09-05T03:55:13.519Z,16.90
2022-09-05T03:57:12.203Z,16.92
2022-09-05T03:57:27.637Z,16.94
2022-09-05T03:59:16.585Z,16.92
2022-09-05T04:02:46.443Z,16.85
2022-09-05T04:08:14.407Z,16.85
2022-09-05T04:08:14.568Z,16.81
2022-09-05T04:10:02.466Z,16.79
2022-09-05T04:12:28.872Z,16.76
2022-09-05T04:14:55.769Z,16.75
2022-09-05T04:17:23.534Z,16.75
2022-09-05T04:19:50.243Z,16.75
2022-09-05T04:22:16.771Z,16.69
2022-09-05T04:24:43.279Z,16.62
2022-09-05T04:27:09.654Z,16.60
2022-09-05T04:29:36.138Z,16.57
2022-09-05T04:32:18.347Z,16.55
2022-09-05T04:34:45.900Z,16.53
2022-09-05T04:37:16.426Z,16.53
2022-09-05T04:39:42.911Z,16.55
2022-09-05T04:42:09.348Z,16.50
2022-09-05T04:44:37.547Z,15.55
2022-09-05T04:47:03.927Z,16.50
2022-09-05T04:49:31.947Z,16.47
2022-09-05T04:52:00.963Z,16.55
2022-09-05T04:54:30.311Z,16.61
2022-09-05T04:56:57.152Z,16.69
2022-09-05T05:01:58.990Z,16.73
2022-09-05T05:06:05.413Z,16.82
2022-09-05T05:06:23.823Z,16.95
2022-09-05T05:07:44.602Z,17.00
2022-09-05T05:12:06.842Z,17.08
2022-09-05T05:17:54.776Z,17.16
2022-09-05T05:18:06.250Z,17.25
2022-09-05T05:18:48.992Z,17.38
2022-09-05T05:21:21.109Z,17.46
2022-09-05T05:23:47.547Z,17.54
2022-09-05T05:26:14.010Z,17.58
2022-09-05T05:28:42.032Z,17.62
2022-09-05T05:31:08.938Z,17.66
2022-09-05T05:33:35.354Z,17.73
2022-09-05T05:36:01.894Z,17.81
2022-09-05T05:38:28.715Z,17.91
2022-09-05T05:40:55.142Z,18.03
2022-09-05T05:43:21.725Z,18.14
2022-09-05T05:45:48.219Z,18.24
2022-09-05T05:48:14.669Z,18.31
2022-09-05T05:50:46.308Z,18.39
2022-09-05T05:53:12.722Z,18.46
2022-09-05T05:55:55.843Z,18.55
2022-09-05T05:58:22.521Z,19.06
2022-09-05T06:00:51.954Z,20.27
2022-09-05T06:03:26.226Z,21.84
2022-09-05T06:05:54.039Z,22.30
2022-09-05T06:10:47.569Z,22.68
2022-09-05T06:14:49.766Z,23.74
2022-09-05T06:15:00.482Z,24.71
2022-09-05T06:16:42.899Z,25.11
2022-09-05T06:19:11.411Z,25.50
2022-09-05T06:22:06.538Z,25.97
2022-09-05T06:24:24.406Z,26.59
2022-09-05T06:26:51.045Z,26.67
2022-09-05T06:29:17.488Z,26.47
2022-09-05T06:31:47.603Z,27.06
2022-09-05T06:34:27.933Z,27.63
2022-09-05T06:37:00.986Z,27.86
2022-09-05T06:39:27.720Z,27.79
2022-09-05T06:41:54.269Z,28.06
2022-09-05T06:44:24.106Z,28.50
2022-09-05T06:47:22.857Z,29.07
2022-09-05T06:49:42.812Z,30.15
2022-09-05T06:52:29.270Z,30.44
2022-09-05T06:54:59.860Z,30.71
2022-09-05T06:57:26.758Z,30.37
2022-09-05T06:59:53.541Z,30.29
2022-09-05T07:02:31.016Z,30.41
2022-09-05T07:05:38.523Z,30.14
2022-09-05T07:07:53.030Z,31.11
2022-09-05T07:10:37.304Z,31.67
2022-09-05T07:24:53.742Z,32.59
2022-09-05T07:27:25.483Z,33.44
2022-09-05T07:29:54.537Z,33.40
2022-09-05T07:32:27.869Z,33.41
2022-09-05T07:34:54.631Z,34.14
2022-09-05T07:37:21.131Z,34.44
2022-09-05T07:39:47.577Z,34.70
2022-09-05T07:42:15.964Z,35.04
2022-09-05T07:44:44.078Z,35.09
2022-09-05T07:47:10.680Z,34.92
2022-09-05T07:49:42.265Z,35.08
2022-09-05T07:56:49.428Z,36.59
2022-09-05T07:56:56.861Z,35.61
2022-09-05T07:58:03.400Z,36.63
2022-09-05T08:00:31.884Z,36.45
2022-09-05T08:02:58.525Z,36.15
2022-09-05T08:05:29.449Z,36.51
2022-09-05T08:08:02.169Z,36.91
2022-09-05T08:10:31.157Z,36.67
2022-09-05T08:13:34.217Z,36.32
2022-09-05T08:16:13.284Z,35.87
2022-09-05T08:18:42.638Z,36.43
2022-09-05T08:21:11.127Z,36.66
2022-09-05T08:23:37.924Z,36.55
2022-09-05T08:26:04.419Z,36.94
2022-09-05T08:28:39.030Z,37.08
2022-09-05T08:31:07.820Z,37.37
2022-09-05T08:33:34.499Z,37.31
2022-09-05T08:36:01.556Z,37.93
2022-09-05T08:38:35.931Z,38.07
2022-09-05T08:41:07.345Z,37.96
2022-09-05T08:46:33.757Z,38.26
2022-09-05T08:46:42.113Z,37.85
2022-09-05T08:49:12.255Z,37.01
2022-09-05T08:51:44.791Z,37.09
2022-09-05T08:54:22.862Z,37.58
2022-09-05T08:56:49.417Z,36.53
2022-09-05T08:59:27.606Z,36.31
2022-09-05T09:02:45.118Z,36.31
2022-09-05T09:05:02.318Z,36.84
2022-09-05T09:07:51.119Z,36.54
2022-09-05T09:10:25.767Z,35.92
2022-09-05T09:12:52.659Z,36.16
2022-09-05T09:15:19.088Z,35.31
2022-09-05T09:17:45.568Z,35.85
2022-09-05T09:20:13.566Z,36.22
2022-09-05T09:22:41.141Z,36.56
2022-09-05T09:25:14.315Z,36.65
2022-09-05T09:28:48.824Z,36.25
2022-09-05T09:30:28.544Z,36.12
2022-09-05T09:32:59.254Z,35.84
2022-09-05T09:35:25.896Z,35.62
2022-09-05T09:37:55.307Z,35.39
2022-09-05T09:40:26.745Z,35.35
2022-09-05T09:42:53.918Z,35.14
2022-09-05T09:45:27.972Z,35.20
2022-09-05T09:47:55.696Z,35.04
2022-09-05T09:50:22.123Z,34.91
2022-09-05T09:52:48.717Z,34.46
2022-09-05T09:55:21.005Z,34.29
2022-09-05T09:57:48.088Z,33.45
2022-09-05T10:00:14.775Z,33.75
2022-09-05T10:05:33.845Z,33.82
2022-09-05T10:10:54.449Z,33.76
2022-09-05T10:10:57.756Z,33.53
2022-09-05T10:13:50.712Z,32.70
2022-09-05T10:16:17.304Z,32.32
2022-09-05T10:18:45.809Z,31.91
2022-09-05T10:21:17.086Z,31.75
2022-09-05T10:23:45.374Z,31.60
2022-09-05T10:26:11.882Z,31.09
2022-09-05T10:28:40.206Z,30.71
2022-09-05T10:32:20.737Z,30.74
2022-09-05T10:35:14.559Z,30.83
2022-09-05T10:36:40.224Z,30.91
2022-09-05T10:39:06.787Z,30.86
2022-09-05T10:41:35.713Z,30.95
2022-09-05T10:44:05.313Z,30.89
2022-09-05T10:46:51.261Z,30.84
2022-09-05T10:49:18.290Z,30.78
2022-09-05T10:51:45.087Z,30.80
2022-09-05T10:54:20.168Z,30.93
2022-09-05T10:56:46.713Z,30.74
2022-09-05T11:02:16.482Z,30.38
2022-09-05T11:02:25.903Z,30.53
2022-09-05T11:04:49.726Z,30.51
2022-09-05T11:07:16.787Z,30.51
2022-09-05T11:09:43.454Z,30.58
2022-09-05T11:12:09.914Z,30.62
2022-09-05T11:14:36.795Z,30.51
2022-09-05T11:17:04.067Z,30.56
2022-09-05T11:19:30.803Z,30.56
2022-09-05T11:22:06.492Z,30.52
2022-09-05T11:24:44.220Z,30.16
2022-09-05T11:27:25.266Z,29.99
2022-09-05T11:29:54.281Z,29.98
2022-09-05T11:34:28.398Z,29.88
2022-09-05T11:39:53.272Z,29.64
2022-09-05T11:39:55.337Z,29.64
2022-09-05T11:41:01.025Z,29.86
2022-09-05T11:43:33.306Z,29.91
2022-09-05T11:45:59.957Z,29.96
2022-09-05T11:48:27.092Z,29.76
2022-09-05T11:50:53.852Z,29.62
2022-09-05T11:53:20.433Z,29.63
2022-09-05T11:55:47.383Z,29.77
2022-09-05T11:58:45.306Z,29.90
2022-09-05T12:01:41.903Z,29.88
2022-09-05T12:03:59.825Z,29.87
2022-09-05T12:06:27.126Z,29.97
2022-09-05T12:08:55.115Z,30.04
2022-09-05T12:11:22.831Z,29.95
2022-09-05T12:13:51.186Z,30.09
2022-09-05T12:16:19.610Z,30.18
2022-09-05T12:18:54.859Z,30.32
2022-09-05T12:21:23.042Z,30.40
2022-09-05T12:24:13.150Z,30.08
2022-09-05T12:27:44.258Z,29.74
2022-09-05T12:29:32.565Z,29.64
2022-09-05T12:33:32.355Z,29.68
2022-09-05T12:36:06.664Z,29.76
2022-09-05T12:40:35.699Z,29.76
2022-09-05T12:41:36.065Z,29.67
2022-09-05T12:44:45.100Z,29.63
2022-09-05T12:46:18.803Z,29.53
2022-09-05T12:49:04.561Z,29.49
2022-09-05T12:51:46.065Z,29.72
2022-09-05T12:54:24.421Z,29.86
2022-09-05T13:01:09.535Z,29.98
2022-09-05T13:02:57.933Z,30.14
2022-09-05T13:03:08.951Z,30.34
2022-09-05T13:05:23.719Z,30.33
2022-09-05T13:07:57.194Z,30.39
2022-09-05T13:14:48.999Z,30.03
2022-09-05T13:14:53.866Z,30.15
2022-09-05T13:15:58.845Z,30.33
2022-09-05T13:18:25.330Z,30.23
2022-09-05T13:20:53.699Z,30.27
2022-09-05T13:23:20.949Z,30.30
2022-09-05T13:25:52.176Z,30.41
2022-09-05T13:28:33.116Z,30.50
2022-09-05T13:37:53.820Z,30.68
2022-09-05T13:38:03.040Z,30.57
2022-09-05T13:38:10.557Z,30.61
2022-09-05T13:41:54.317Z,30.85
2022-09-05T13:44:27.370Z,30.82
2022-09-05T13:46:58.915Z,30.52
2022-09-05T13:49:31.547Z,30.68
2022-09-05T13:52:00.713Z,30.87
2022-09-05T13:54:27.264Z,30.80
2022-09-05T13:56:53.915Z,30.73
2022-09-05T13:59:20.453Z,30.87
2022-09-05T14:02:19.918Z,30.95
2022-09-05T14:10:12.913Z,30.77
2022-09-05T14:12:39.540Z,30.79
2022-09-05T14:15:09.269Z,30.86
2022-09-05T14:17:54.438Z,30.80
2022-09-05T14:20:42.899Z,30.89
2022-09-05T14:23:10.211Z,30.80
2022-09-05T14:25:37.673Z,30.77
2022-09-05T14:28:07.877Z,30.51
2022-09-05T14:33:01.032Z,30.28
2022-09-05T14:37:45.593Z,30.23
2022-09-05T14:37:51.716Z,30.17
2022-09-05T14:38:55.124Z,30.11
2022-09-05T14:41:23.363Z,30.18
2022-09-05T14:43:53.581Z,30.13
2022-09-05T14:46:25.971Z,30.23
2022-09-05T14:48:55.248Z,30.26
2022-09-05T14:51:25.660Z,30.38
2022-09-05T14:57:23.090Z,30.60
2022-09-05T15:02:48.046Z,30.90
2022-09-05T15:02:52.076Z,30.76
2022-09-05T15:04:55.919Z,30.96
2022-09-05T15:07:22.388Z,31.09
2022-09-05T15:12:20.313Z,31.19
2022-09-05T15:12:47.651Z,30.93
2022-09-05T15:15:24.492Z,31.03
2022-09-05T15:17:51.308Z,30.99
2022-09-05T15:20:17.803Z,30.96
2022-09-05T15:22:44.778Z,30.86
2022-09-05T15:25:17.755Z,30.83
2022-09-05T15:27:45.223Z,30.74
2022-09-05T15:30:11.764Z,30.68
2022-09-05T15:32:39.023Z,30.65
2022-09-05T15:35:06.099Z,30.67
2022-09-05T15:37:33.253Z,30.69
2022-09-05T15:40:02.849Z,30.64
2022-09-05T15:42:32.434Z,30.50
2022-09-05T15:45:09.838Z,30.49
2022-09-05T15:47:38.875Z,30.53
2022-09-05T15:50:05.620Z,30.54
2022-09-05T15:52:32.326Z,30.48
2022-09-05T15:54:59.115Z,30.25
2022-09-05T15:57:26.868Z,30.25
2022-09-05T15:59:53.465Z,30.14
2022-09-05T16:02:20.153Z,29.93
2022-09-05T16:10:31.285Z,29.84
2022-09-05T16:10:46.270Z,29.66
2022-09-05T16:10:57.822Z,29.55
2022-09-05T16:13:14.839Z,29.45
2022-09-05T16:19:29.406Z,29.40
2022-09-05T16:23:15.701Z,29.46
2022-09-05T16:23:23.591Z,29.49
2022-09-05T16:24:05.934Z,29.55
2022-09-05T16:26:33.332Z,29.50
2022-09-05T16:28:59.935Z,29.43
2022-09-05T16:31:27.070Z,29.28
2022-09-05T16:33:54.410Z,29.26
2022-09-05T16:36:21.302Z,29.24
2022-09-05T16:38:49.501Z,29.13
2022-09-05T16:41:19.934Z,29.03
2022-09-05T16:43:49.791Z,28.92
2022-09-05T16:46:16.673Z,28.80
2022-09-05T16:48:47.209Z,28.73
2022-09-05T16:51:34.853Z,28.65
2022-09-05T16:54:02.500Z,28.54
2022-09-05T16:56:30.378Z,28.46
2022-09-05T16:58:58.144Z,28.45
2022-09-05T17:01:24.724Z,28.42
2022-09-05T17:03:53.645Z,28.30
2022-09-05T17:06:25.866Z,28.20
2022-09-05T17:08:55.505Z,28.12
2022-09-05T17:11:44.484Z,28.02
2022-09-05T17:14:26.141Z,27.95
2022-09-05T17:16:56.627Z,27.90
2022-09-05T17:19:23.856Z,27.85
2022-09-05T17:29:19.469Z,27.76
2022-09-05T17:29:26.606Z,27.65
2022-09-05T17:29:47.328Z,27.59
2022-09-05T17:33:08.970Z,27.44
2022-09-05T17:35:41.547Z,27.37
2022-09-05T17:38:11.560Z,27.30
2022-09-05T17:40:39.275Z,27.27
2022-09-05T17:43:05.748Z,27.21
2022-09-05T17:45:35.023Z,27.14
2022-09-05T17:48:02.044Z,27.05
2022-09-05T17:50:33.285Z,26.94
2022-09-05T17:53:25.197Z,26.84
2022-09-05T17:55:50.262Z,26.70
2022-09-05T17:58:18.900Z,26.65
2022-09-05T18:00:45.905Z,26.60
2022-09-05T18:03:13.013Z,26.59
2022-09-05T18:05:39.766Z,26.52
2022-09-05T18:08:07.037Z,26.44
2022-09-05T18:10:33.619Z,26.32
2022-09-05T18:13:31.642Z,26.18
2022-09-05T18:15:47.131Z,26.04
2022-09-05T18:18:42.283Z,25.90
2022-09-05T18:23:54.334Z,25.62
2022-09-05T18:29:57.633Z,25.20
2022-09-05T18:32:54.176Z,25.30
2022-09-05T18:35:42.995Z,25.20
2022-09-05T18:38:18.751Z,23.90
2022-09-05T18:41:13.541Z,24.99
2022-09-05T18:44:00.483Z,22.02
2022-09-05T18:46:47.367Z,24.49
2022-09-05T18:50:22.028Z,23.13
2022-09-05T18:52:13.453Z,21.97
2022-09-05T18:54:50.381Z,23.81
2022-09-05T18:57:38.257Z,21.36
2022-09-05T19:00:09.731Z,19.39
2022-09-05T19:02:51.339Z,22.93
2022-09-05T19:05:56.117Z,24.02
2022-09-05T19:08:48.355Z,23.36
2022-09-05T19:11:28.033Z,22.99
2022-09-05T19:14:25.220Z,21.99
2022-09-05T19:16:47.675Z,23.41
2022-09-05T19:19:16.054Z,17.30
2022-09-05T19:21:56.133Z,22.86
2022-09-05T19:24:45.716Z,23.14
2022-09-05T19:27:55.384Z,23.90
2022-09-05T19:36:57.695Z,21.10
2022-09-05T19:37:13.892Z,23.51
2022-09-05T19:37:23.872Z,23.69
2022-09-05T19:40:20.475Z,23.57
2022-09-05T19:47:40.430Z,21.06
2022-09-05T19:47:41.508Z,22.26
2022-09-05T19:47:42.046Z,22.48
2022-09-05T19:50:09.848Z,23.36
2022-09-05T19:52:39.517Z,23.79
2022-09-05T19:55:26.420Z,23.76
2022-09-05T19:58:19.342Z,21.80
2022-09-05T20:01:16.953Z,23.71
2022-09-05T20:03:43.843Z,23.69
2022-09-05T20:06:12.024Z,23.62
2022-09-05T20:08:45.354Z,23.64
2022-09-05T20:11:11.902Z,23.62
2022-09-05T20:13:38.598Z,23.52
2022-09-05T20:16:06.043Z,23.42
2022-09-05T20:18:32.910Z,23.28
2022-09-05T20:20:59.718Z,23.14
2022-09-05T20:23:26.489Z,23.02
2022-09-05T20:25:53.122Z,23.04
2022-09-05T20:28:19.810Z,22.98
2022-09-05T20:30:46.412Z,22.94
2022-09-05T20:33:13.749Z,22.94
2022-09-05T20:40:41.747Z,22.92
2022-09-05T20:43:11.435Z,22.72
2022-09-05T20:43:27.820Z,22.97
2022-09-05T20:44:23.068Z,22.95
2022-09-05T20:50:14.296Z,22.96
2022-09-05T20:54:10.245Z,22.88
2022-09-05T20:54:17.182Z,22.79
2022-09-05T20:55:38.152Z,22.72
2022-09-05T20:58:02.874Z,22.79
2022-09-05T21:00:30.194Z,22.75
2022-09-05T21:02:58.375Z,22.60
2022-09-05T21:05:24.969Z,22.55
2022-09-05T21:08:06.773Z,22.49
2022-09-05T21:10:34.200Z,22.58
2022-09-05T21:13:17.539Z,22.57
2022-09-05T21:15:52.928Z,22.51
2022-09-05T21:18:23.446Z,22.43
2022-09-05T21:20:56.613Z,22.36
2022-09-05T21:23:24.078Z,22.28
2022-09-05T21:25:51.493Z,22.16
2022-09-05T21:28:17.887Z,22.07
2022-09-05T21:30:44.469Z,21.96
2022-09-05T21:33:18.299Z,21.90
2022-09-05T21:35:44.999Z,21.95
2022-09-05T21:38:11.479Z,21.99
2022-09-05T21:40:37.915Z,21.92
2022-09-05T21:47:33.925Z,21.86
2022-09-05T21:47:49.426Z,21.87
2022-09-05T21:48:40.387Z,21.82
2022-09-05T21:51:06.907Z,21.78
2022-09-05T21:58:33.502Z,21.74
2022-09-05T21:59:25.704Z,21.71
2022-09-05T21:59:32.704Z,21.68
2022-09-05T22:01:54.782Z,21.65
2022-09-05T22:04:22.047Z,21.71
2022-09-05T22:06:48.981Z,21.68
2022-09-05T22:09:19.699Z,21.70
2022-09-05T22:11:53.033Z,21.66
2022-09-05T22:14:21.838Z,21.66
2022-09-05T22:16:50.252Z,21.60
2022-09-05T22:19:21.404Z,21.56
2022-09-05T22:21:47.918Z,21.61
2022-09-05T22:24:14.372Z,21.62
2022-09-05T22:26:52.005Z,21.62
2022-09-05T22:29:27.823Z,21.60
2022-09-05T22:31:56.209Z,21.64
2022-09-05T22:34:23.447Z,21.65
2022-09-05T22:36:50.986Z,21.66
2022-09-05T22:39:27.381Z,21.63
2022-09-05T22:42:04.065Z,21.63
2022-09-05T22:44:37.727Z,21.66
2022-09-05T22:47:05.699Z,21.69
2022-09-05T22:49:32.414Z,21.69
2022-09-05T22:51:59.224Z,21.68
2022-09-05T22:54:25.691Z,21.70
2022-09-05T22:56:52.204Z,21.70
2022-09-05T22:59:19.466Z,21.68
2022-09-05T23:01:45.917Z,21.67
2022-09-05T23:04:12.453Z,21.65
2022-09-05T23:06:38.954Z,21.64
2022-09-05T23:09:05.544Z,21.60
2022-09-05T23:11:31.984Z,21.57
2022-09-05T23:13:58.673Z,21.53
2022-09-05T23:16:25.079Z,21.49
2022-09-05T23:18:51.562Z,21.47
2022-09-05T23:21:18.195Z,21.47
2022-09-05T23:23:45.222Z,21.47
2022-09-05T23:26:17.845Z,21.45
2022-09-05T23:28:44.584Z,21.46
2022-09-05T23:31:11.268Z,21.44
2022-09-05T23:33:37.858Z,21.44
2022-09-05T23:36:05.167Z,21.44
2022-09-05T23:38:31.651Z,21.44
2022-09-05T23:40:58.079Z,21.45
2022-09-05T23:43:25.661Z,21.42
2022-09-05T23:45:52.234Z,21.41
2022-09-05T23:48:18.870Z,21.43
2022-09-05T23:50:45.407Z,21.41
2022-09-05T23:53:11.972Z,21.41
2022-09-05T23:55:41.590Z,21.39
2022-09-05T23:58:10.163Z,21.38
